createdAt,value
2023-03-16T00:02:06.739Z,99156.63
2023-03-16T00:04:37.844Z,99150.28
2023-03-16T00:07:09.510Z,99147.91
2023-03-16T00:09:40.836Z,99146.72
2023-03-16T00:12:16.055Z,99139.63
2023-03-16T00:14:44.945Z,99140.78
2023-03-16T00:17:20.363Z,99131.34
2023-03-16T00:19:55.192Z,99123.88
2023-03-16T00:22:28.125Z,99132.50
2023-03-16T00:24:55.273Z,99132.09
2023-03-16T00:27:23.548Z,99131.69
2023-03-16T00:29:56.144Z,99125.78
2023-03-16T00:32:28.375Z,99117.13
2023-03-16T00:34:55.772Z,99116.81
2023-03-16T00:37:23.722Z,99118.78
2023-03-16T00:39:51.661Z,99123.56
2023-03-16T00:42:19.616Z,99110.97
2023-03-16T00:44:46.863Z,99112.19
2023-03-16T00:47:14.728Z,99120.09
2023-03-16T00:49:44.641Z,99124.06
2023-03-16T00:52:15.870Z,99115.41
2023-03-16T00:54:43.622Z,99109.53
2023-03-16T00:57:12.488Z,99111.53
2023-03-16T00:59:39.556Z,99107.56
2023-03-16T01:02:08.000Z,99106.41
2023-03-16T01:04:36.499Z,99099.28
2023-03-16T01:07:06.867Z,99102.06
2023-03-16T01:09:36.972Z,99093.00
2023-03-16T01:12:10.225Z,99081.97
2023-03-16T01:14:37.562Z,99091.41
2023-03-16T01:17:08.370Z,99080.38
2023-03-16T01:19:37.878Z,99070.91
2023-03-16T01:22:09.833Z,99079.63
2023-03-16T01:24:37.420Z,99072.94
2023-03-16T01:27:05.365Z,99069.78
2023-03-16T01:29:33.122Z,99069.00
2023-03-16T01:32:01.223Z,99067.81
2023-03-16T01:34:28.667Z,99073.34
2023-03-16T01:36:55.845Z,99062.69
2023-03-16T01:39:22.436Z,99059.13
2023-03-16T01:41:49.244Z,99052.84
2023-03-16T01:44:20.168Z,99050.06
2023-03-16T01:46:47.982Z,99048.09
2023-03-16T01:49:16.687Z,99042.59
2023-03-16T01:51:43.821Z,99030.72
2023-03-16T01:54:20.155Z,99041.78
2023-03-16T01:57:15.509Z,99036.25
2023-03-16T01:59:49.289Z,99016.91
2023-03-16T02:02:21.546Z,99033.09
2023-03-16T02:05:07.172Z,99026.78
2023-03-16T02:07:44.643Z,99031.13
2023-03-16T02:10:14.554Z,99016.53
2023-03-16T02:12:41.444Z,99033.09
2023-03-16T02:15:08.771Z,99025.22
2023-03-16T02:17:36.504Z,99025.25
2023-03-16T02:20:06.073Z,99027.66
2023-03-16T02:22:36.287Z,99024.50
2023-03-16T02:25:03.515Z,99018.59
2023-03-16T02:27:42.073Z,99011.50
2023-03-16T02:30:13.905Z,99016.66
2023-03-16T02:32:41.352Z,99002.47
2023-03-16T02:35:09.096Z,98997.38
2023-03-16T02:37:36.638Z,98992.25
2023-03-16T02:40:17.004Z,98997.78
2023-03-16T02:42:43.906Z,98993.03
2023-03-16T02:45:10.826Z,98983.94
2023-03-16T02:47:45.768Z,98980.38
2023-03-16T02:50:13.061Z,98987.50
2023-03-16T02:52:39.793Z,98986.72
2023-03-16T02:55:07.515Z,98988.28
2023-03-16T02:57:34.680Z,98992.66
2023-03-16T03:00:01.521Z,98997.00
2023-03-16T03:02:28.174Z,98993.06
2023-03-16T03:04:55.935Z,98983.59
2023-03-16T03:07:22.541Z,98985.19
2023-03-16T03:09:49.134Z,98996.25
2023-03-16T03:12:15.729Z,98985.19
2023-03-16T03:14:42.386Z,98984.00
2023-03-16T03:17:10.460Z,98981.22
2023-03-16T03:19:37.372Z,98975.72
2023-03-16T03:22:06.532Z,98979.69
2023-03-16T03:24:34.562Z,98981.28
2023-03-16T03:27:05.769Z,98983.25
2023-03-16T03:29:36.393Z,98967.06
2023-03-16T03:32:06.623Z,98967.81
2023-03-16T03:34:33.322Z,98957.97
2023-03-16T03:37:00.076Z,98965.44
2023-03-16T03:39:26.710Z,98964.28
2023-03-16T03:41:55.419Z,98949.66
2023-03-16T03:44:23.015Z,98940.97
2023-03-16T03:46:50.189Z,98939.41
2023-03-16T03:49:19.157Z,98942.53
2023-03-16T03:51:47.209Z,98933.09
2023-03-16T03:54:13.821Z,98939.41
2023-03-16T03:56:40.613Z,98934.66
2023-03-16T03:59:07.312Z,98951.22
2023-03-16T04:01:33.990Z,98952.03
2023-03-16T04:04:00.699Z,98938.63
2023-03-16T04:06:28.019Z,98931.50
2023-03-16T04:08:54.787Z,98920.44
2023-03-16T04:11:21.597Z,98911.78
2023-03-16T04:13:48.255Z,98896.75
2023-03-16T04:16:16.376Z,98901.47
2023-03-16T04:18:43.299Z,98898.31
2023-03-16T04:21:15.984Z,98905.44
2023-03-16T04:23:43.847Z,98895.97
2023-03-16T04:26:11.189Z,98895.56
2023-03-16T04:28:37.882Z,98898.34
2023-03-16T04:31:07.268Z,98885.69
2023-03-16T04:33:35.421Z,98879.81
2023-03-16T04:36:02.754Z,98871.50
2023-03-16T04:38:30.784Z,98886.09
2023-03-16T04:40:58.455Z,98888.88
2023-03-16T04:43:25.223Z,98885.34
2023-03-16T04:45:51.994Z,98873.06
2023-03-16T04:48:18.827Z,98866.75
2023-03-16T04:50:47.341Z,98867.19
2023-03-16T04:53:14.172Z,98877.03
2023-03-16T04:55:41.945Z,98881.00
2023-03-16T04:58:08.553Z,98856.56
2023-03-16T05:00:35.179Z,98867.63
2023-03-16T05:03:02.816Z,98865.25
2023-03-16T05:05:29.810Z,98862.84
2023-03-16T05:07:56.631Z,98860.88
2023-03-16T05:10:23.469Z,98860.13
2023-03-16T05:12:50.333Z,98847.91
2023-03-16T05:15:17.002Z,98861.31
2023-03-16T05:17:43.624Z,98862.13
2023-03-16T05:20:25.999Z,98857.38
2023-03-16T05:22:52.601Z,98873.16
2023-03-16T05:25:20.538Z,98870.41
2023-03-16T05:27:49.766Z,98843.16
2023-03-16T05:30:17.601Z,98853.84
2023-03-16T05:32:45.081Z,98849.47
2023-03-16T05:35:13.590Z,98860.53
2023-03-16T05:37:41.703Z,98862.53
2023-03-16T05:40:14.276Z,98858.97
2023-03-16T05:42:41.021Z,98849.50
2023-03-16T05:45:08.307Z,98847.91
2023-03-16T05:47:37.304Z,98837.25
2023-03-16T05:50:05.831Z,98843.56
2023-03-16T05:52:33.856Z,98838.44
2023-03-16T05:55:00.703Z,98835.25
2023-03-16T05:57:27.369Z,98828.94
2023-03-16T05:59:54.648Z,98832.88
2023-03-16T06:02:21.385Z,98835.63
2023-03-16T06:04:48.000Z,98844.72
2023-03-16T06:07:14.682Z,98830.09
2023-03-16T06:09:41.303Z,98828.94
2023-03-16T06:12:08.044Z,98826.56
2023-03-16T06:14:34.720Z,98820.25
2023-03-16T06:17:01.377Z,98820.66
2023-03-16T06:19:27.992Z,98816.28
2023-03-16T06:21:54.687Z,98800.91
2023-03-16T06:24:21.389Z,98807.59
2023-03-16T06:26:47.988Z,98792.56
2023-03-16T06:29:14.844Z,98783.47
2023-03-16T06:31:41.605Z,98777.97
2023-03-16T06:34:08.327Z,98765.34
2023-03-16T06:36:35.459Z,98761.78
2023-03-16T06:39:02.133Z,98747.56
2023-03-16T06:41:28.703Z,98750.72
2023-03-16T06:43:55.368Z,98763.38
2023-03-16T06:46:22.138Z,98781.53
2023-03-16T06:48:48.899Z,98791.03
2023-03-16T06:51:16.835Z,98797.75
2023-03-16T06:53:43.641Z,98787.88
2023-03-16T06:56:10.235Z,98785.56
2023-03-16T06:58:36.930Z,98791.91
2023-03-16T07:01:04.764Z,98789.13
2023-03-16T07:03:31.850Z,98799.78
2023-03-16T07:05:58.552Z,98797.44
2023-03-16T07:08:25.278Z,98790.31
2023-03-16T07:10:52.253Z,98773.75
2023-03-16T07:13:18.882Z,98776.91
2023-03-16T07:15:45.479Z,98782.03
2023-03-16T07:18:12.460Z,98769.38
2023-03-16T07:20:39.159Z,98778.88
2023-03-16T07:23:05.795Z,98777.28
2023-03-16T07:25:32.435Z,98778.88
2023-03-16T07:27:59.104Z,98773.72
2023-03-16T07:30:25.855Z,98795.84
2023-03-16T07:32:53.264Z,98794.25
2023-03-16T07:35:20.229Z,98790.34
2023-03-16T07:37:46.885Z,98790.34
2023-03-16T07:40:14.511Z,98791.91
2023-03-16T07:42:41.170Z,98802.59
2023-03-16T07:45:08.538Z,98806.53
2023-03-16T07:47:35.510Z,98806.13
2023-03-16T07:50:02.333Z,98811.28
2023-03-16T07:52:29.039Z,98811.69
2023-03-16T07:54:55.793Z,98803.78
2023-03-16T07:57:22.685Z,98806.56
2023-03-16T07:59:49.268Z,98813.69
2023-03-16T08:02:18.403Z,98806.94
2023-03-16T08:04:46.415Z,98797.88
2023-03-16T08:07:14.808Z,98805.41
2023-03-16T08:09:41.959Z,98815.28
2023-03-16T08:12:09.781Z,98805.84
2023-03-16T08:14:37.284Z,98804.66
2023-03-16T08:17:05.206Z,98810.19
2023-03-16T08:19:32.612Z,98808.22
2023-03-16T08:22:02.098Z,98799.94
2023-03-16T08:24:29.771Z,98775.84
2023-03-16T08:26:57.601Z,98780.19
2023-03-16T08:29:25.244Z,98792.06
2023-03-16T08:31:57.939Z,98788.13
2023-03-16T08:34:25.093Z,98800.38
2023-03-16T08:36:51.819Z,98790.44
2023-03-16T08:39:18.547Z,98790.47
2023-03-16T08:41:46.110Z,98805.50
2023-03-16T08:44:13.142Z,98810.25
2023-03-16T08:46:40.879Z,98809.03
2023-03-16T08:49:08.833Z,98807.84
2023-03-16T08:51:35.481Z,98804.69
2023-03-16T08:54:04.820Z,98805.09
2023-03-16T08:56:32.458Z,98800.75
2023-03-16T08:58:59.890Z,98795.19
2023-03-16T09:01:26.829Z,98808.69
2023-03-16T09:03:53.634Z,98801.13
2023-03-16T09:06:20.477Z,98799.16
2023-03-16T09:08:47.838Z,98812.22
2023-03-16T09:11:17.778Z,98808.22
2023-03-16T09:13:44.853Z,98810.16
2023-03-16T09:16:13.081Z,98819.63
2023-03-16T09:18:40.614Z,98816.00
2023-03-16T09:21:10.458Z,98819.50
2023-03-16T09:23:41.885Z,98817.06
2023-03-16T09:26:09.626Z,98815.91
2023-03-16T09:28:38.852Z,98819.53
2023-03-16T09:31:06.324Z,98814.81
2023-03-16T09:33:34.357Z,98812.47
2023-03-16T09:36:01.922Z,98806.47
2023-03-16T09:38:28.948Z,98813.97
2023-03-16T09:41:03.067Z,98805.91
2023-03-16T09:43:38.703Z,98818.53
2023-03-16T09:46:08.106Z,98830.38
2023-03-16T09:48:37.670Z,98829.88
2023-03-16T09:51:08.217Z,98821.31
2023-03-16T09:53:39.149Z,98820.16
2023-03-16T09:56:22.918Z,98827.41
2023-03-16T09:58:49.794Z,98829.81
2023-03-16T10:01:43.210Z,98817.06
2023-03-16T10:04:17.022Z,98820.31
2023-03-16T10:06:54.567Z,98835.69
2023-03-16T10:09:23.802Z,98821.28
2023-03-16T10:11:56.880Z,98817.22
2023-03-16T10:14:30.861Z,98825.22
2023-03-16T10:17:14.491Z,98818.25
2023-03-16T10:19:47.498Z,98800.13
2023-03-16T10:22:26.622Z,98804.94
2023-03-16T10:25:08.711Z,98803.66
2023-03-16T10:27:38.423Z,98812.91
2023-03-16T10:30:14.682Z,98804.63
2023-03-16T10:32:41.429Z,98803.09
2023-03-16T10:35:28.694Z,98796.09
2023-03-16T10:37:56.776Z,98800.19
2023-03-16T10:40:23.561Z,98796.97
2023-03-16T10:42:50.410Z,98807.44
2023-03-16T10:45:25.466Z,98813.22
2023-03-16T10:47:52.179Z,98824.03
2023-03-16T10:50:25.243Z,98814.00
2023-03-16T10:52:53.309Z,98816.31
2023-03-16T10:55:24.736Z,98818.59
2023-03-16T10:57:55.131Z,98821.22
2023-03-16T11:00:36.644Z,98825.81
2023-03-16T11:03:25.930Z,98811.13
2023-03-16T11:06:00.881Z,98809.13
2023-03-16T11:08:32.302Z,98817.25
2023-03-16T11:11:08.473Z,98821.00
2023-03-16T11:13:38.071Z,98824.00
2023-03-16T11:16:13.917Z,98816.34
2023-03-16T11:18:47.745Z,98812.22
2023-03-16T11:21:25.805Z,98810.72
2023-03-16T11:23:56.198Z,98811.63
2023-03-16T11:26:34.023Z,98806.59
2023-03-16T11:29:09.454Z,98813.97
2023-03-16T11:31:46.166Z,98808.00
2023-03-16T11:34:17.704Z,98812.34
2023-03-16T11:36:53.498Z,98806.25
2023-03-16T11:39:42.758Z,98816.38
2023-03-16T11:42:24.135Z,98812.94
2023-03-16T11:45:10.103Z,98812.72
2023-03-16T11:47:58.238Z,98813.19
2023-03-16T11:50:51.656Z,98806.03
2023-03-16T11:53:27.506Z,98802.84
2023-03-16T11:56:02.065Z,98805.13
2023-03-16T11:58:57.961Z,98792.31
2023-03-16T12:02:00.764Z,98801.38
2023-03-16T12:05:09.800Z,98799.38
2023-03-16T12:08:17.648Z,98795.41
2023-03-16T12:10:56.456Z,98802.53
2023-03-16T12:14:01.502Z,98788.25
2023-03-16T12:16:49.082Z,98799.28
2023-03-16T12:19:42.623Z,98793.03
2023-03-16T12:22:24.046Z,98787.97
2023-03-16T12:24:50.899Z,98795.38
2023-03-16T12:27:27.212Z,98795.34
2023-03-16T12:30:20.978Z,98790.19
2023-03-16T12:33:08.872Z,98801.75
2023-03-16T12:35:48.332Z,98791.09
2023-03-16T12:38:37.951Z,98791.41
2023-03-16T12:41:21.365Z,98786.44
2023-03-16T12:43:51.156Z,98790.38
2023-03-16T12:46:56.618Z,98789.53
2023-03-16T12:49:28.817Z,98791.72
2023-03-16T12:52:01.616Z,98797.47
2023-03-16T12:54:28.593Z,98804.22
2023-03-16T12:57:08.693Z,98800.91
2023-03-16T12:59:45.709Z,98795.22
2023-03-16T13:02:31.466Z,98805.97
2023-03-16T13:05:30.147Z,98800.78
2023-03-16T13:08:16.535Z,98815.16
2023-03-16T13:11:01.824Z,98810.50
2023-03-16T13:13:28.911Z,98807.56
2023-03-16T13:16:07.052Z,98814.06
2023-03-16T13:18:45.272Z,98813.72
2023-03-16T13:21:37.261Z,98815.19
2023-03-16T13:24:18.786Z,98807.06
2023-03-16T13:27:06.620Z,98815.78
2023-03-16T13:29:34.004Z,98813.78
2023-03-16T13:32:11.511Z,98807.94
2023-03-16T13:34:48.571Z,98819.56
2023-03-16T13:37:18.119Z,98815.94
2023-03-16T13:40:01.873Z,98815.94
2023-03-16T13:42:33.616Z,98813.69
2023-03-16T13:45:12.930Z,98806.41
2023-03-16T13:47:43.236Z,98800.50
2023-03-16T13:50:14.188Z,98805.03
2023-03-16T13:52:44.195Z,98803.84
2023-03-16T13:55:16.934Z,98804.63
2023-03-16T13:57:45.454Z,98792.78
2023-03-16T14:00:20.659Z,98798.13
2023-03-16T14:02:52.160Z,98797.94
2023-03-16T14:05:22.794Z,98785.13
2023-03-16T14:07:53.814Z,98787.91
2023-03-16T14:10:23.052Z,98790.78
2023-03-16T14:12:58.773Z,98790.00
2023-03-16T14:15:28.075Z,98794.63
2023-03-16T14:18:05.063Z,98780.66
2023-03-16T14:20:34.985Z,98787.13
2023-03-16T14:23:20.535Z,98775.59
2023-03-16T14:25:49.314Z,98771.59
2023-03-16T14:28:19.194Z,98773.69
2023-03-16T14:31:04.053Z,98769.72
2023-03-16T14:33:37.820Z,98773.66
2023-03-16T14:36:13.097Z,98761.16
2023-03-16T14:38:41.802Z,98770.06
2023-03-16T14:41:09.628Z,98770.41
2023-03-16T14:43:40.320Z,98761.31
2023-03-16T14:46:08.595Z,98747.31
2023-03-16T14:48:35.931Z,98746.78
2023-03-16T14:51:04.414Z,98740.75
2023-03-16T14:53:31.838Z,98746.25
2023-03-16T14:55:59.624Z,98747.47
2023-03-16T14:58:26.644Z,98749.44
2023-03-16T15:00:55.316Z,98760.25
2023-03-16T15:03:30.394Z,98750.34
2023-03-16T15:05:57.128Z,98752.81
2023-03-16T15:08:27.526Z,98744.88
2023-03-16T15:11:00.987Z,98746.44
2023-03-16T15:13:57.014Z,98739.16
2023-03-16T15:16:24.046Z,98745.91
2023-03-16T15:18:51.936Z,98738.38
2023-03-16T15:21:25.124Z,98744.50
2023-03-16T15:23:52.348Z,98743.50
2023-03-16T15:26:28.611Z,98750.81
2023-03-16T15:28:57.030Z,98745.94
2023-03-16T15:31:24.384Z,98751.44
2023-03-16T15:33:51.063Z,98743.84
2023-03-16T15:36:21.057Z,98743.03
2023-03-16T15:38:50.504Z,98750.78
2023-03-16T15:41:17.267Z,98752.66
2023-03-16T15:43:45.829Z,98753.44
2023-03-16T15:46:12.993Z,98754.22
2023-03-16T15:48:39.965Z,98756.31
2023-03-16T15:51:07.678Z,98763.69
2023-03-16T15:53:41.505Z,98761.94
2023-03-16T15:56:13.142Z,98758.38
2023-03-16T15:58:43.458Z,98760.34
2023-03-16T16:01:21.746Z,98755.13
2023-03-16T16:03:50.227Z,98762.56
2023-03-16T16:06:17.475Z,98747.44
2023-03-16T16:08:44.499Z,98754.28
2023-03-16T16:11:25.170Z,98743.63
2023-03-16T16:13:52.060Z,98754.06
2023-03-16T16:16:20.188Z,98762.19
2023-03-16T16:18:48.372Z,98741.28
2023-03-16T16:21:23.207Z,98755.66
2023-03-16T16:23:51.475Z,98750.88
2023-03-16T16:26:27.916Z,98742.28
2023-03-16T16:28:58.811Z,98734.75
2023-03-16T16:31:28.007Z,98737.34
2023-03-16T16:33:54.680Z,98738.56
2023-03-16T16:36:22.084Z,98734.09
2023-03-16T16:38:50.100Z,98730.09
2023-03-16T16:41:38.461Z,98729.34
2023-03-16T16:44:13.622Z,98722.94
2023-03-16T16:46:42.500Z,98724.44
2023-03-16T16:49:19.614Z,98733.97
2023-03-16T16:51:46.418Z,98728.72
2023-03-16T16:54:18.793Z,98718.88
2023-03-16T16:56:46.634Z,98718.88
2023-03-16T16:59:23.042Z,98723.59
2023-03-16T17:01:57.527Z,98723.06
2023-03-16T17:04:27.264Z,98716.63
2023-03-16T17:06:58.721Z,98715.78
2023-03-16T17:09:27.253Z,98729.59
2023-03-16T17:11:56.207Z,98726.66
2023-03-16T17:14:24.006Z,98732.88
2023-03-16T17:16:51.832Z,98741.03
2023-03-16T17:19:24.573Z,98737.19
2023-03-16T17:21:52.666Z,98752.03
2023-03-16T17:24:19.404Z,98739.47
2023-03-16T17:26:49.409Z,98737.19
2023-03-16T17:29:25.644Z,98748.41
2023-03-16T17:31:52.961Z,98753.66
2023-03-16T17:34:25.371Z,98752.53
2023-03-16T17:36:52.726Z,98751.03
2023-03-16T17:39:21.184Z,98757.06
2023-03-16T17:42:03.044Z,98761.50
2023-03-16T17:44:50.849Z,98756.81
2023-03-16T17:47:23.239Z,98754.13
2023-03-16T17:49:50.762Z,98760.13
2023-03-16T17:52:25.992Z,98765.75
2023-03-16T17:54:53.993Z,98770.59
2023-03-16T17:57:29.222Z,98773.03
2023-03-16T17:59:56.138Z,98782.19
2023-03-16T18:02:49.768Z,98776.22
2023-03-16T18:05:22.712Z,98777.06
2023-03-16T18:07:50.532Z,98785.47
2023-03-16T18:10:26.352Z,98780.34
2023-03-16T18:13:06.726Z,98770.06
2023-03-16T18:15:36.606Z,98766.94
2023-03-16T18:18:07.642Z,98786.78
2023-03-16T18:20:36.632Z,98772.97
2023-03-16T18:23:19.030Z,98769.44
2023-03-16T18:25:46.063Z,98787.72
2023-03-16T18:28:13.994Z,98778.22
2023-03-16T18:30:47.400Z,98779.03
2023-03-16T18:33:36.392Z,98798.88
2023-03-16T18:36:07.968Z,98799.31
2023-03-16T18:38:40.236Z,98795.78
2023-03-16T18:41:17.408Z,98815.63
2023-03-16T18:43:44.483Z,98810.06
2023-03-16T18:46:32.003Z,98818.00
2023-03-16T18:49:13.568Z,98813.66
2023-03-16T18:51:41.781Z,98822.78
2023-03-16T18:54:45.488Z,98816.88
2023-03-16T18:57:20.293Z,98815.28
2023-03-16T18:59:47.202Z,98822.03
2023-03-16T19:02:38.884Z,98822.84
2023-03-16T19:05:12.490Z,98820.88
2023-03-16T19:08:01.815Z,98824.84
2023-03-16T19:10:32.305Z,98830.00
2023-03-16T19:12:59.525Z,98826.06
2023-03-16T19:15:34.795Z,98820.09
2023-03-16T19:18:01.459Z,98823.28
2023-03-16T19:20:30.639Z,98835.16
2023-03-16T19:23:06.484Z,98837.16
2023-03-16T19:25:37.333Z,98844.25
2023-03-16T19:28:06.367Z,98833.56
2023-03-16T19:30:34.911Z,98841.09
2023-03-16T19:33:02.056Z,98841.47
2023-03-16T19:35:48.606Z,98843.06
2023-03-16T19:38:16.728Z,98851.41
2023-03-16T19:40:44.547Z,98847.03
2023-03-16T19:43:17.640Z,98845.06
2023-03-16T19:45:45.254Z,98854.56
2023-03-16T19:48:16.669Z,98843.91
2023-03-16T19:50:43.360Z,98849.06
2023-03-16T19:53:21.908Z,98848.25
2023-03-16T19:55:51.074Z,98852.19
2023-03-16T19:58:35.269Z,98846.25
2023-03-16T20:01:03.043Z,98845.88
2023-03-16T20:03:33.409Z,98845.88
2023-03-16T20:06:00.117Z,98849.03
2023-03-16T20:08:29.118Z,98844.28
2023-03-16T20:11:08.722Z,98845.84
2023-03-16T20:13:36.315Z,98845.84
2023-03-16T20:16:03.590Z,98849.41
2023-03-16T20:18:30.497Z,98847.84
2023-03-16T20:20:57.588Z,98849.81
2023-03-16T20:23:29.370Z,98853.78
2023-03-16T20:26:01.949Z,98845.06
2023-03-16T20:28:36.975Z,98855.34
2023-03-16T20:31:22.145Z,98853.34
2023-03-16T20:33:50.477Z,98855.34
2023-03-16T20:36:17.127Z,98856.53
2023-03-16T20:38:44.343Z,98860.84
2023-03-16T20:41:28.621Z,98867.97
2023-03-16T20:43:56.443Z,98868.34
2023-03-16T20:46:29.203Z,98862.41
2023-03-16T20:48:56.622Z,98872.66
2023-03-16T20:51:23.545Z,98870.66
2023-03-16T20:53:51.368Z,98868.69
2023-03-16T20:56:23.814Z,98861.97
2023-03-16T20:58:51.683Z,98869.47
2023-03-16T21:01:21.450Z,98871.06
2023-03-16T21:03:55.232Z,98879.72
2023-03-16T21:06:30.680Z,98871.81
2023-03-16T21:09:00.958Z,98881.31
2023-03-16T21:11:30.057Z,98883.63
2023-03-16T21:13:56.970Z,98882.06
2023-03-16T21:16:23.843Z,98889.16
2023-03-16T21:18:50.981Z,98887.16
2023-03-16T21:21:18.886Z,98878.84
2023-03-16T21:23:46.208Z,98887.53
2023-03-16T21:26:20.327Z,98885.94
2023-03-16T21:28:56.573Z,98902.91
2023-03-16T21:31:24.363Z,98905.66
2023-03-16T21:33:52.030Z,98904.09
2023-03-16T21:36:21.910Z,98912.00
2023-03-16T21:38:50.893Z,98912.00
2023-03-16T21:41:17.798Z,98908.03
2023-03-16T21:43:44.845Z,98910.34
2023-03-16T21:46:19.799Z,98912.69
2023-03-16T21:48:49.724Z,98913.84
2023-03-16T21:51:19.916Z,98913.47
2023-03-16T21:53:48.659Z,98915.41
2023-03-16T21:56:22.566Z,98912.66
2023-03-16T21:58:50.525Z,98916.16
2023-03-16T22:01:27.741Z,98903.56
2023-03-16T22:04:02.376Z,98907.88
2023-03-16T22:06:29.238Z,98903.56
2023-03-16T22:08:57.617Z,98907.84
2023-03-16T22:11:29.495Z,98907.00
2023-03-16T22:13:57.789Z,98903.03
2023-03-16T22:16:26.412Z,98907.75
2023-03-16T22:18:56.394Z,98915.22
2023-03-16T22:21:37.685Z,98907.72
2023-03-16T22:24:17.650Z,98901.41
2023-03-16T22:26:44.665Z,98899.81
2023-03-16T22:29:23.835Z,98905.34
2023-03-16T22:31:53.812Z,98901.41
2023-03-16T22:34:32.203Z,98901.81
2023-03-16T22:37:00.755Z,98910.09
2023-03-16T22:39:29.451Z,98906.19
2023-03-16T22:41:56.052Z,98905.34
2023-03-16T22:44:23.808Z,98906.88
2023-03-16T22:46:51.076Z,98913.19
2023-03-16T22:49:24.920Z,98910.03
2023-03-16T22:51:55.553Z,98901.34
2023-03-16T22:54:26.054Z,98904.50
2023-03-16T22:56:53.190Z,98901.34
2023-03-16T22:59:23.880Z,98894.25
2023-03-16T23:01:50.736Z,98902.94
2023-03-16T23:04:30.218Z,98896.59
2023-03-16T23:06:57.389Z,98906.84
2023-03-16T23:09:24.639Z,98906.06
2023-03-16T23:11:54.700Z,98913.19
2023-03-16T23:14:37.053Z,98904.88
2023-03-16T23:17:03.591Z,98909.22
2023-03-16T23:19:34.077Z,98904.09
2023-03-16T23:22:03.565Z,98911.59
2023-03-16T23:24:31.098Z,98902.91
2023-03-16T23:26:58.157Z,98898.16
2023-03-16T23:29:26.315Z,98898.16
2023-03-16T23:31:54.780Z,98902.91
2023-03-16T23:34:23.810Z,98913.19
2023-03-16T23:36:51.468Z,98910.41
2023-03-16T23:39:18.685Z,98912.00
2023-03-16T23:41:48.535Z,98919.09
2023-03-16T23:44:22.346Z,98921.06
2023-03-16T23:46:49.584Z,98913.19
2023-03-16T23:49:22.441Z,98918.66
2023-03-16T23:51:50.303Z,98913.16
2023-03-16T23:54:23.484Z,98910.75
2023-03-16T23:56:50.994Z,98902.47
2023-03-16T23:59:19.222Z,98913.16
